Time;durP1;ratioP1;P1;durP2;ratioP2;P2;SDS_P1;SDS_P2;PMS_P1;PMS_P2;Temp;Humidity;BMP_temperature;BMP_pressure;BME280_temperature;BME280_humidity;BME280_pressure;Samples;Min_cycle;Max_cycle;Signal;HPM_P1;HPM_P2
2023/11/17 00:00:31;;;;;;;2.85;1.90;;;;;;;;;;2104880;28;20032;-64
2023/11/17 00:01:50;;;;;;;2.63;2.40;;;;;;;;;;2105584;28;20373;-64
2023/11/17 00:03:09;;;;;;;2.67;2.10;;;;;;;;;;2110994;28;20054;-64
2023/11/17 00:04:28;;;;;;;4.43;2.22;;;;;;;;;;2106608;28;20025;-65
2023/11/17 00:05:47;;;;;;;2.42;2.03;;;;;;;;;;2106622;28;20031;-65
2023/11/17 00:07:06;;;;;;;4.60;2.20;;;;;;;;;;2106108;28;20062;-66
2023/11/17 00:08:28;;;;;;;4.22;2.00;;;;;;;;;;2109062;28;20484;-65
2023/11/17 00:09:47;;;;;;;3.67;2.00;;;;;;;;;;2106329;28;20110;-65
2023/11/17 00:11:06;;;;;;;2.35;2.15;;;;;;;;;;2106450;28;20237;-64
2023/11/17 00:12:25;;;;;;;2.97;2.05;;;;;;;;;;2109383;28;20405;-65
2023/11/17 00:13:44;;;;;;;2.90;2.08;;;;;;;;;;2107500;28;20023;-64
2023/11/17 00:15:06;;;;;;;3.00;2.25;;;;;;;;;;2106549;28;20027;-64
2023/11/17 00:16:25;;;;;;;4.00;1.85;;;;;;;;;;2108183;28;20020;-64
2023/11/17 00:17:44;;;;;;;4.88;2.65;;;;;;;;;;2104892;28;20027;-64
2023/11/17 00:19:05;;;;;;;2.92;2.20;;;;;;;;;;2107953;28;20426;-64
2023/11/17 00:20:25;;;;;;;3.27;2.23;;;;;;;;;;2107457;28;20027;-64
2023/11/17 00:21:44;;;;;;;2.55;2.03;;;;;;;;;;2105868;28;20244;-65
2023/11/17 00:23:03;;;;;;;2.38;1.90;;;;;;;;;;2106440;28;20023;-65
2023/11/17 00:24:22;;;;;;;2.53;2.33;;;;;;;;;;2106480;28;20143;-65
2023/11/17 00:25:41;;;;;;;3.42;1.95;;;;;;;;;;2106440;28;20031;-65
2023/11/17 00:27:00;;;;;;;2.30;2.10;;;;;;;;;;2105266;28;20024;-65
2023/11/17 00:28:20;;;;;;;2.50;1.92;;;;;;;;;;2105596;28;20438;-65
2023/11/17 00:29:39;;;;;;;2.30;2.10;;;;;;;;;;2108001;28;20036;-65
2023/11/17 00:30:58;;;;;;;2.30;2.10;;;;;;;;;;2107154;28;20020;-65
2023/11/17 00:32:17;;;;;;;4.57;2.40;;;;;;;;;;2108075;28;20451;-64
2023/11/17 00:33:39;;;;;;;2.35;1.80;;;;;;;;;;2105737;28;20047;-64
2023/11/17 00:34:59;;;;;;;2.47;2.15;;;;;;;;;;2105797;28;20588;-64
2023/11/17 00:36:18;;;;;;;2.10;1.95;;;;;;;;;;2106805;28;20060;-64
2023/11/17 00:37:39;;;;;;;2.28;2.08;;;;;;;;;;2105984;28;20051;-64
2023/11/17 00:38:58;;;;;;;3.72;2.15;;;;;;;;;;2104376;28;20031;-64
2023/11/17 00:40:17;;;;;;;4.10;2.20;;;;;;;;;;2105177;28;20028;-64
2023/11/17 00:41:37;;;;;;;1.92;1.83;;;;;;;;;;2105002;28;20591;-63
2023/11/17 00:42:55;;;;;;;2.38;1.90;;;;;;;;;;2106113;28;20826;-64
2023/11/17 00:44:14;;;;;;;2.58;2.10;;;;;;;;;;2107793;28;20087;-63
2023/11/17 00:45:33;;;;;;;2.53;2.33;;;;;;;;;;2104633;28;20044;-64
2023/11/17 00:46:53;;;;;;;3.15;1.80;;;;;;;;;;2105216;28;20028;-63
2023/11/17 00:48:12;;;;;;;3.88;2.35;;;;;;;;;;2105893;28;20024;-64
2023/11/17 00:49:31;;;;;;;3.33;2.03;;;;;;;;;;2108702;28;20020;-65
2023/11/17 00:50:50;;;;;;;2.50;2.00;;;;;;;;;;2106045;28;20755;-64
2023/11/17 00:52:09;;;;;;;3.35;1.70;;;;;;;;;;2108576;28;20114;-64
2023/11/17 00:53:32;;;;;;;2.72;2.30;;;;;;;;;;2108248;28;20031;-64
2023/11/17 00:54:53;;;;;;;3.42;1.85;;;;;;;;;;2103652;28;20032;-65
2023/11/17 00:56:12;;;;;;;2.70;2.50;;;;;;;;;;2106589;28;20031;-64
2023/11/17 00:57:32;;;;;;;2.75;1.88;;;;;;;;;;2105117;28;20060;-64
2023/11/17 00:58:50;;;;;;;2.63;2.40;;;;;;;;;;2107634;28;20074;-64
2023/11/17 01:00:11;;;;;;;2.92;2.05;;;;;;;;;;2105157;28;20538;-64
2023/11/17 01:01:30;;;;;;;3.45;2.50;;;;;;;;;;2107190;28;20070;-65
2023/11/17 01:02:49;;;;;;;2.30;1.90;;;;;;;;;;2108031;28;20035;-64
2023/11/17 01:04:09;;;;;;;2.08;1.88;;;;;;;;;;2107580;28;20395;-64
2023/11/17 01:05:27;;;;;;;3.00;2.47;;;;;;;;;;2104531;28;20053;-64
2023/11/17 01:06:53;;;;;;;2.50;2.22;;;;;;;;;;2107419;28;20493;-64
2023/11/17 01:08:12;;;;;;;3.63;2.58;;;;;;;;;;2107491;28;20024;-64
2023/11/17 01:09:32;;;;;;;4.63;2.20;;;;;;;;;;2106463;28;20027;-64
2023/11/17 01:10:53;;;;;;;2.63;2.05;;;;;;;;;;2107929;28;20385;-64
2023/11/17 01:12:13;;;;;;;3.47;2.10;;;;;;;;;;2108046;28;20056;-64
2023/11/17 01:13:32;;;;;;;2.30;2.10;;;;;;;;;;2107081;28;20031;-64
2023/11/17 01:14:51;;;;;;;3.17;2.63;;;;;;;;;;2105671;28;20579;-64
2023/11/17 01:16:10;;;;;;;5.82;2.03;;;;;;;;;;2109217;28;20032;-64
2023/11/17 01:17:29;;;;;;;2.88;2.25;;;;;;;;;;2104000;28;20179;-64
2023/11/17 01:18:48;;;;;;;6.70;2.92;;;;;;;;;;2108210;28;20397;-64
2023/11/17 01:20:09;;;;;;;6.15;2.47;;;;;;;;;;2105685;28;20474;-64
2023/11/17 01:21:28;;;;;;;1.98;1.88;;;;;;;;;;2105171;28;20949;-64
2023/11/17 01:22:47;;;;;;;2.47;2.28;;;;;;;;;;2105967;28;20032;-64
2023/11/17 01:24:06;;;;;;;2.53;2.33;;;;;;;;;;2108926;28;20567;-64
2023/11/17 01:25:25;;;;;;;5.32;2.33;;;;;;;;;;2104077;28;20036;-64
2023/11/17 01:26:44;;;;;;;2.63;2.10;;;;;;;;;;2103878;28;20619;-64
2023/11/17 01:28:03;;;;;;;5.43;2.70;;;;;;;;;;2107360;28;20897;-64
2023/11/17 01:29:22;;;;;;;2.38;2.00;;;;;;;;;;2106779;28;20023;-64
2023/11/17 01:30:42;;;;;;;3.67;2.42;;;;;;;;;;2105690;28;20024;-64
2023/11/17 01:32:01;;;;;;;1.95;1.85;;;;;;;;;;2103476;28;20024;-64
2023/11/17 01:33:20;;;;;;;4.78;1.90;;;;;;;;;;2105475;28;20031;-65
2023/11/17 01:34:38;;;;;;;3.55;1.92;;;;;;;;;;2106341;28;20035;-64
2023/11/17 01:35:58;;;;;;;3.50;2.10;;;;;;;;;;2106591;28;20114;-64
2023/11/17 01:37:18;;;;;;;3.40;2.22;;;;;;;;;;2108366;28;20143;-65
2023/11/17 01:38:37;;;;;;;2.60;2.30;;;;;;;;;;2108724;28;20422;-65
2023/11/17 01:39:58;;;;;;;2.50;2.30;;;;;;;;;;2107716;28;20568;-65
2023/11/17 01:41:16;;;;;;;3.10;2.22;;;;;;;;;;2107445;28;20040;-65
2023/11/17 01:42:39;;;;;;;2.33;2.03;;;;;;;;;;2107568;28;20036;-64
2023/11/17 01:43:59;;;;;;;2.28;2.08;;;;;;;;;;2105916;28;20036;-65
2023/11/17 01:45:21;;;;;;;4.95;1.98;;;;;;;;;;2105765;28;20056;-65
2023/11/17 01:46:40;;;;;;;3.40;2.28;;;;;;;;;;2105664;28;20497;-65
2023/11/17 01:47:59;;;;;;;2.97;2.10;;;;;;;;;;2106036;28;20031;-66
2023/11/17 01:49:21;;;;;;;2.33;2.13;;;;;;;;;;2101777;28;20040;-65
2023/11/17 01:50:41;;;;;;;2.50;2.25;;;;;;;;;;2104110;28;20023;-64
2023/11/17 01:52:00;;;;;;;4.47;2.35;;;;;;;;;;2088401;28;20044;-65
2023/11/17 01:53:18;;;;;;;2.58;2.25;;;;;;;;;;2103276;28;20439;-65
2023/11/17 01:54:38;;;;;;;3.08;2.42;;;;;;;;;;2100370;28;20103;-65
2023/11/17 01:55:57;;;;;;;4.00;2.55;;;;;;;;;;2106085;28;20040;-65
2023/11/17 01:57:17;;;;;;;2.20;2.00;;;;;;;;;;2106219;28;20481;-65
2023/11/17 01:58:36;;;;;;;2.63;2.33;;;;;;;;;;2108529;28;20043;-64
2023/11/17 01:59:55;;;;;;;2.33;2.13;;;;;;;;;;2106522;28;20020;-66
2023/11/17 02:01:14;;;;;;;3.00;2.00;;;;;;;;;;2108831;28;20032;-65
2023/11/17 02:02:34;;;;;;;7.18;2.35;;;;;;;;;;2106809;28;20493;-65
2023/11/17 02:03:55;;;;;;;2.50;2.30;;;;;;;;;;2106354;28;20481;-65
2023/11/17 02:05:20;;;;;;;2.00;1.90;;;;;;;;;;2102191;28;20032;-65
2023/11/17 02:06:40;;;;;;;4.70;2.58;;;;;;;;;;2096946;28;20639;-65
2023/11/17 02:08:08;;;;;;;2.45;2.25;;;;;;;;;;2102602;28;20024;-65
2023/11/17 02:09:44;;;;;;;2.10;1.90;;;;;;;;;;2106616;28;20056;-65
2023/11/17 02:11:24;;;;;;;3.50;2.20;;;;;;;;;;2105468;28;20024;-65
2023/11/17 02:12:52;;;;;;;2.35;1.95;;;;;;;;;;2105688;28;20504;-65
2023/11/17 02:14:18;;;;;;;3.00;1.90;;;;;;;;;;2104904;28;20492;-65
2023/11/17 02:15:39;;;;;;;3.92;2.00;;;;;;;;;;2101962;28;20024;-65
2023/11/17 02:17:00;;;;;;;2.25;2.05;;;;;;;;;;2105826;28;20111;-65
2023/11/17 02:18:22;;;;;;;2.92;2.17;;;;;;;;;;2105078;28;20268;-64
2023/11/17 02:19:43;;;;;;;1.67;1.58;;;;;;;;;;2103876;28;20123;-64
2023/11/17 02:21:05;;;;;;;2.05;1.85;;;;;;;;;;2107157;28;21350;-65
2023/11/17 02:22:30;;;;;;;2.92;1.83;;;;;;;;;;2107766;28;20039;-65
2023/11/17 02:23:51;;;;;;;2.30;2.03;;;;;;;;;;2106372;28;20069;-64
2023/11/17 02:25:32;;;;;;;2.10;1.92;;;;;;;;;;2105952;28;20032;-65
2023/11/17 02:27:00;;;;;;;2.30;2.10;;;;;;;;;;2106623;28;20031;-65
2023/11/17 02:28:38;;;;;;;2.72;2.45;;;;;;;;;;2106836;28;20032;-65
2023/11/17 02:30:03;;;;;;;1.95;1.77;;;;;;;;;;2107044;28;20032;-64
2023/11/17 02:31:29;;;;;;;2.03;1.90;;;;;;;;;;2104278;28;20031;-65
2023/11/17 02:32:50;;;;;;;2.45;2.22;;;;;;;;;;2106202;28;20388;-65
2023/11/17 02:34:09;;;;;;;2.38;2.00;;;;;;;;;;2106382;28;20487;-65
2023/11/17 02:35:31;;;;;;;1.98;1.88;;;;;;;;;;2103429;28;20578;-65
2023/11/17 02:36:51;;;;;;;2.60;2.40;;;;;;;;;;2104192;28;20036;-65
2023/11/17 02:38:10;;;;;;;3.78;2.40;;;;;;;;;;2108717;28;20037;-65
2023/11/17 02:39:36;;;;;;;3.75;2.40;;;;;;;;;;2108888;28;20376;-64
2023/11/17 02:40:55;;;;;;;2.45;2.20;;;;;;;;;;2109721;28;20125;-66
2023/11/17 02:42:14;;;;;;;2.20;2.00;;;;;;;;;;2106645;28;20024;-65
2023/11/17 02:43:37;;;;;;;2.75;2.13;;;;;;;;;;2108673;28;20028;-66
2023/11/17 02:45:00;;;;;;;2.53;2.33;;;;;;;;;;2107636;28;20066;-65
2023/11/17 02:46:24;;;;;;;2.58;2.15;;;;;;;;;;2108542;28;20044;-65
2023/11/17 02:47:46;;;;;;;2.38;1.90;;;;;;;;;;2110194;28;20024;-65
2023/11/17 02:49:10;;;;;;;2.25;2.05;;;;;;;;;;2108554;28;20028;-64
2023/11/17 02:50:38;;;;;;;2.60;2.25;;;;;;;;;;2109090;28;20024;-65
2023/11/17 02:52:03;;;;;;;3.70;2.08;;;;;;;;;;2108151;28;20028;-64
2023/11/17 02:53:27;;;;;;;2.47;2.28;;;;;;;;;;2106820;28;20032;-65
2023/11/17 02:54:47;;;;;;;3.28;2.10;;;;;;;;;;2101723;28;20127;-66
2023/11/17 02:56:06;;;;;;;3.47;2.30;;;;;;;;;;2105368;28;20023;-65
2023/11/17 02:57:25;;;;;;;2.30;2.10;;;;;;;;;;2108150;28;20035;-65
2023/11/17 02:58:48;;;;;;;4.80;2.22;;;;;;;;;;2107574;28;20032;-65
2023/11/17 03:00:08;;;;;;;1.92;1.83;;;;;;;;;;2107953;28;20032;-65
2023/11/17 03:01:27;;;;;;;2.13;1.92;;;;;;;;;;2105764;28;20040;-66
2023/11/17 03:02:47;;;;;;;3.88;2.53;;;;;;;;;;2106553;28;20035;-65
2023/11/17 03:04:13;;;;;;;2.33;2.13;;;;;;;;;;2109126;28;20028;-64
2023/11/17 03:05:32;;;;;;;2.35;2.15;;;;;;;;;;2107999;28;20422;-65
2023/11/17 03:06:51;;;;;;;2.10;1.88;;;;;;;;;;2108606;28;21651;-65
2023/11/17 03:08:10;;;;;;;2.40;2.08;;;;;;;;;;2107025;28;20024;-65
2023/11/17 03:09:30;;;;;;;2.30;2.10;;;;;;;;;;2106611;28;20020;-65
2023/11/17 03:10:49;;;;;;;2.03;1.88;;;;;;;;;;2107417;28;20024;-65
2023/11/17 03:12:08;;;;;;;2.60;2.20;;;;;;;;;;2110240;28;20032;-65
2023/11/17 03:13:27;;;;;;;2.45;1.90;;;;;;;;;;2107127;28;20036;-65
2023/11/17 03:14:46;;;;;;;3.00;2.13;;;;;;;;;;2106577;28;20024;-65
2023/11/17 03:16:05;;;;;;;4.07;2.00;;;;;;;;;;2104167;28;20032;-65
2023/11/17 03:17:25;;;;;;;2.83;2.38;;;;;;;;;;2105492;28;20027;-65
2023/11/17 03:18:44;;;;;;;4.25;2.10;;;;;;;;;;2107673;28;20024;-65
2023/11/17 03:20:03;;;;;;;2.28;2.08;;;;;;;;;;2107519;28;20115;-65
2023/11/17 03:21:26;;;;;;;2.95;1.92;;;;;;;;;;2104524;28;20110;-64
2023/11/17 03:22:45;;;;;;;2.30;2.10;;;;;;;;;;2103172;28;20106;-65
2023/11/17 03:24:06;;;;;;;4.10;2.28;;;;;;;;;;2106885;28;20028;-64
2023/11/17 03:25:26;;;;;;;2.47;2.28;;;;;;;;;;2106769;28;20032;-65
2023/11/17 03:26:46;;;;;;;2.83;2.33;;;;;;;;;;2108528;28;20024;-65
2023/11/17 03:28:13;;;;;;;2.17;1.98;;;;;;;;;;2105350;28;20024;-65
2023/11/17 03:29:31;;;;;;;2.55;2.30;;;;;;;;;;2106285;28;20400;-64
2023/11/17 03:30:55;;;;;;;2.35;2.15;;;;;;;;;;2106969;28;21273;-64
2023/11/17 03:32:14;;;;;;;3.63;2.50;;;;;;;;;;2105618;28;20492;-66
2023/11/17 03:33:33;;;;;;;2.65;2.40;;;;;;;;;;2106915;28;20520;-64
2023/11/17 03:34:52;;;;;;;2.25;2.05;;;;;;;;;;2106634;28;20032;-64
2023/11/17 03:36:11;;;;;;;2.92;2.13;;;;;;;;;;2103100;28;20031;-65
2023/11/17 03:37:31;;;;;;;3.20;2.03;;;;;;;;;;2107367;28;20027;-64
2023/11/17 03:38:50;;;;;;;2.72;2.05;;;;;;;;;;2109179;28;20028;-64
2023/11/17 03:40:11;;;;;;;2.20;2.00;;;;;;;;;;2107970;28;20036;-64
2023/11/17 03:41:30;;;;;;;2.53;2.33;;;;;;;;;;2107133;27;20040;-64
2023/11/17 03:42:49;;;;;;;2.78;2.42;;;;;;;;;;2110921;27;20423;-64
2023/11/17 03:44:08;;;;;;;2.80;2.60;;;;;;;;;;2107698;28;20044;-64
2023/11/17 03:45:27;;;;;;;2.70;2.50;;;;;;;;;;2106001;28;20036;-64
2023/11/17 03:46:46;;;;;;;4.05;2.33;;;;;;;;;;2105521;28;20051;-64
2023/11/17 03:48:05;;;;;;;2.78;2.38;;;;;;;;;;2105385;28;20657;-65
2023/11/17 03:49:25;;;;;;;2.47;2.28;;;;;;;;;;2106649;28;20473;-65
2023/11/17 03:50:44;;;;;;;4.55;2.50;;;;;;;;;;2107490;28;20016;-64
2023/11/17 03:52:03;;;;;;;2.50;2.25;;;;;;;;;;2107900;28;20480;-64
2023/11/17 03:53:22;;;;;;;4.68;2.50;;;;;;;;;;2109380;28;20106;-64
2023/11/17 03:54:41;;;;;;;3.03;2.10;;;;;;;;;;2108194;28;20098;-64
2023/11/17 03:56:00;;;;;;;3.40;2.80;;;;;;;;;;2105526;28;20036;-64
2023/11/17 03:57:20;;;;;;;3.38;2.35;;;;;;;;;;2108717;28;20107;-64
2023/11/17 03:58:39;;;;;;;2.60;2.40;;;;;;;;;;2108322;28;20098;-64
2023/11/17 03:59:59;;;;;;;2.10;2.00;;;;;;;;;;2106424;28;20024;-64
2023/11/17 04:01:18;;;;;;;2.20;2.10;;;;;;;;;;2102769;28;20520;-65
2023/11/17 04:02:38;;;;;;;5.80;2.17;;;;;;;;;;2106176;28;20035;-65
2023/11/17 04:03:57;;;;;;;2.75;2.15;;;;;;;;;;2109362;28;20028;-64
2023/11/17 04:05:16;;;;;;;4.07;2.03;;;;;;;;;;2106974;28;20496;-64
2023/11/17 04:06:35;;;;;;;3.22;2.40;;;;;;;;;;2106183;28;20089;-64
2023/11/17 04:07:55;;;;;;;3.33;2.42;;;;;;;;;;2102149;28;20024;-65
2023/11/17 04:09:15;;;;;;;3.88;2.67;;;;;;;;;;2104874;28;20044;-65
2023/11/17 04:10:35;;;;;;;2.88;2.58;;;;;;;;;;2108348;28;20028;-64
2023/11/17 04:11:58;;;;;;;3.38;2.30;;;;;;;;;;2105963;28;20028;-64
2023/11/17 04:13:17;;;;;;;4.88;2.20;;;;;;;;;;2107596;28;20035;-65
2023/11/17 04:14:42;;;;;;;2.83;2.22;;;;;;;;;;2101873;28;20032;-65
2023/11/17 04:16:01;;;;;;;3.80;2.03;;;;;;;;;;2104024;28;20032;-64
2023/11/17 04:17:20;;;;;;;3.28;2.03;;;;;;;;;;2107560;28;20032;-64
2023/11/17 04:18:40;;;;;;;2.50;2.15;;;;;;;;;;2107588;28;20028;-65
2023/11/17 04:19:59;;;;;;;3.00;2.08;;;;;;;;;;2104722;28;21541;-65
2023/11/17 04:21:20;;;;;;;2.47;2.05;;;;;;;;;;2107494;28;20449;-65
2023/11/17 04:22:40;;;;;;;3.25;2.40;;;;;;;;;;2107412;28;20500;-65
2023/11/17 04:23:59;;;;;;;3.97;2.17;;;;;;;;;;2107196;28;20412;-65
2023/11/17 04:25:18;;;;;;;2.20;1.90;;;;;;;;;;2109538;28;20081;-65
2023/11/17 04:26:37;;;;;;;2.28;2.00;;;;;;;;;;2108004;28;20067;-65
2023/11/17 04:27:56;;;;;;;2.40;1.95;;;;;;;;;;2104491;28;20052;-65
2023/11/17 04:29:15;;;;;;;3.17;2.15;;;;;;;;;;2107415;28;20028;-64
2023/11/17 04:30:34;;;;;;;2.15;1.95;;;;;;;;;;2106409;28;20032;-64
2023/11/17 04:31:56;;;;;;;2.10;1.67;;;;;;;;;;2105885;28;20060;-64
2023/11/17 04:33:15;;;;;;;2.35;2.15;;;;;;;;;;2105797;28;20118;-64
2023/11/17 04:34:34;;;;;;;3.38;2.00;;;;;;;;;;2107849;28;20484;-65
2023/11/17 04:35:54;;;;;;;4.03;2.35;;;;;;;;;;2105463;28;20040;-64
2023/11/17 04:37:13;;;;;;;1.90;1.80;;;;;;;;;;2106194;28;20031;-65
2023/11/17 04:38:32;;;;;;;2.05;1.90;;;;;;;;;;2105476;28;20055;-65
2023/11/17 04:39:51;;;;;;;3.55;2.40;;;;;;;;;;2106724;28;20056;-65
2023/11/17 04:41:11;;;;;;;2.47;2.28;;;;;;;;;;2108955;28;20500;-64
2023/11/17 04:42:30;;;;;;;3.92;2.10;;;;;;;;;;2108485;28;20542;-64
2023/11/17 04:43:49;;;;;;;2.30;2.13;;;;;;;;;;2106093;28;20039;-65
2023/11/17 04:45:09;;;;;;;2.30;1.83;;;;;;;;;;2108183;28;20027;-65
2023/11/17 04:46:27;;;;;;;2.03;1.90;;;;;;;;;;2105549;28;20059;-67
2023/11/17 04:47:48;;;;;;;3.35;2.15;;;;;;;;;;2124019;27;20027;-65
2023/11/17 04:49:07;;;;;;;3.85;1.92;;;;;;;;;;2112685;27;20032;-64
2023/11/17 04:50:26;;;;;;;3.30;2.40;;;;;;;;;;2105871;28;20047;-64
2023/11/17 04:51:48;;;;;;;4.57;2.40;;;;;;;;;;2119279;27;20023;-65
2023/11/17 04:53:08;;;;;;;2.43;2.23;;;;;;;;;;2108468;27;20048;-65
2023/11/17 04:54:27;;;;;;;3.63;2.70;;;;;;;;;;2105819;28;20355;-65
2023/11/17 04:55:48;;;;;;;2.13;2.00;;;;;;;;;;2107133;28;20056;-64
2023/11/17 04:57:08;;;;;;;3.25;2.67;;;;;;;;;;2105797;28;20444;-64
2023/11/17 04:58:27;;;;;;;2.83;2.63;;;;;;;;;;2108618;28;20028;-64
2023/11/17 04:59:49;;;;;;;3.33;2.20;;;;;;;;;;2106901;28;20024;-64
2023/11/17 05:01:10;;;;;;;3.00;2.20;;;;;;;;;;2102965;28;20052;-65
2023/11/17 05:02:32;;;;;;;3.50;2.30;;;;;;;;;;2104135;28;20024;-65
2023/11/17 05:03:51;;;;;;;2.67;2.47;;;;;;;;;;2102807;28;20478;-65
2023/11/17 05:05:11;;;;;;;3.38;2.63;;;;;;;;;;2107378;28;20487;-65
2023/11/17 05:06:30;;;;;;;2.63;2.42;;;;;;;;;;2106494;28;20043;-65
2023/11/17 05:07:49;;;;;;;2.80;2.40;;;;;;;;;;2104528;28;20016;-64
2023/11/17 05:09:12;;;;;;;3.50;2.55;;;;;;;;;;2106321;28;20028;-65
2023/11/17 05:10:30;;;;;;;3.53;2.92;;;;;;;;;;2108355;28;20035;-64
2023/11/17 05:11:49;;;;;;;3.60;2.67;;;;;;;;;;2105629;28;20051;-65
2023/11/17 05:13:10;;;;;;;3.80;2.70;;;;;;;;;;2105993;28;20024;-65
2023/11/17 05:14:29;;;;;;;3.28;2.60;;;;;;;;;;2106921;28;20024;-65
2023/11/17 05:15:49;;;;;;;4.65;2.80;;;;;;;;;;2104180;28;20028;-65
2023/11/17 05:17:15;;;;;;;3.25;2.35;;;;;;;;;;2102545;28;20039;-65
2023/11/17 05:18:33;;;;;;;3.88;2.55;;;;;;;;;;2107042;28;20032;-65
2023/11/17 05:19:53;;;;;;;2.65;2.25;;;;;;;;;;2106446;28;20690;-64
2023/11/17 05:21:13;;;;;;;4.10;2.72;;;;;;;;;;2105502;28;20040;-64
2023/11/17 05:22:32;;;;;;;3.38;3.08;;;;;;;;;;2105484;28;20503;-65
2023/11/17 05:23:53;;;;;;;3.30;2.70;;;;;;;;;;2105236;28;20476;-64
2023/11/17 05:25:13;;;;;;;10.23;2.97;;;;;;;;;;2106191;28;20024;-65
2023/11/17 05:26:33;;;;;;;2.63;2.33;;;;;;;;;;2104904;28;20035;-65
2023/11/17 05:27:52;;;;;;;2.60;2.40;;;;;;;;;;2107259;28;20024;-65
2023/11/17 05:29:13;;;;;;;4.75;2.38;;;;;;;;;;2107453;28;20671;-65
2023/11/17 05:30:32;;;;;;;3.53;3.20;;;;;;;;;;2105207;28;20115;-65
2023/11/17 05:31:51;;;;;;;3.30;3.00;;;;;;;;;;2106062;28;20032;-65
2023/11/17 05:33:10;;;;;;;11.57;3.22;;;;;;;;;;2109203;28;20412;-65
2023/11/17 05:34:29;;;;;;;4.28;3.13;;;;;;;;;;2107596;28;20027;-65
2023/11/17 05:35:48;;;;;;;3.85;2.83;;;;;;;;;;2105575;28;20472;-65
2023/11/17 05:37:07;;;;;;;4.72;2.75;;;;;;;;;;2107242;28;20110;-65
2023/11/17 05:38:26;;;;;;;3.50;2.80;;;;;;;;;;2105741;28;20052;-64
2023/11/17 05:39:45;;;;;;;3.05;2.85;;;;;;;;;;2106692;28;20028;-65
2023/11/17 05:41:05;;;;;;;3.92;2.97;;;;;;;;;;2103802;28;20372;-65
2023/11/17 05:42:24;;;;;;;3.42;2.60;;;;;;;;;;2105959;28;20606;-64
2023/11/17 05:43:45;;;;;;;4.03;2.58;;;;;;;;;;2101988;28;20163;-65
2023/11/17 05:45:05;;;;;;;3.35;2.78;;;;;;;;;;2103746;28;20028;-65
2023/11/17 05:46:24;;;;;;;3.28;2.95;;;;;;;;;;2106363;28;20487;-65
2023/11/17 05:47:43;;;;;;;3.45;2.60;;;;;;;;;;2108405;28;20023;-66
2023/11/17 05:49:03;;;;;;;3.15;2.72;;;;;;;;;;2106023;28;20020;-65
2023/11/17 05:50:23;;;;;;;3.95;2.90;;;;;;;;;;2107157;28;20107;-64
2023/11/17 05:51:45;;;;;;;3.38;3.08;;;;;;;;;;2107196;28;20027;-65
2023/11/17 05:53:04;;;;;;;4.07;2.67;;;;;;;;;;2106520;28;20591;-64
2023/11/17 05:54:24;;;;;;;3.63;2.97;;;;;;;;;;2104696;28;20066;-65
2023/11/17 05:55:43;;;;;;;3.10;2.80;;;;;;;;;;2106451;28;20027;-65
2023/11/17 05:57:02;;;;;;;3.55;2.78;;;;;;;;;;2107474;28;20023;-64
2023/11/17 05:58:20;;;;;;;4.93;2.80;;;;;;;;;;2105093;28;20023;-64
2023/11/17 05:59:39;;;;;;;3.10;2.85;;;;;;;;;;2107009;28;20020;-64
2023/11/17 06:00:58;;;;;;;2.95;2.70;;;;;;;;;;2102305;28;20076;-66
2023/11/17 06:02:17;;;;;;;3.38;3.10;;;;;;;;;;2104165;28;20020;-65
2023/11/17 06:03:37;;;;;;;3.88;3.03;;;;;;;;;;2107245;28;20020;-64
2023/11/17 06:04:56;;;;;;;3.72;2.97;;;;;;;;;;2103261;28;20020;-65
2023/11/17 06:06:15;;;;;;;3.05;2.75;;;;;;;;;;2097696;28;20476;-66
2023/11/17 06:07:34;;;;;;;4.35;2.80;;;;;;;;;;2101268;28;20024;-66
2023/11/17 06:08:53;;;;;;;3.35;3.00;;;;;;;;;;2102758;28;20020;-65
2023/11/17 06:10:13;;;;;;;3.20;2.90;;;;;;;;;;2098156;28;20134;-66
2023/11/17 06:11:35;;;;;;;4.50;3.20;;;;;;;;;;2106130;28;20111;-65
2023/11/17 06:12:54;;;;;;;7.30;3.45;;;;;;;;;;2107427;28;20020;-64
2023/11/17 06:14:13;;;;;;;2.78;2.58;;;;;;;;;;2106280;28;20027;-64
2023/11/17 06:15:32;;;;;;;4.93;2.80;;;;;;;;;;2105856;28;20027;-65
2023/11/17 06:16:53;;;;;;;3.35;2.80;;;;;;;;;;2110354;28;20015;-65
2023/11/17 06:18:12;;;;;;;4.45;3.25;;;;;;;;;;2106354;28;20019;-65
2023/11/17 06:19:33;;;;;;;4.47;3.05;;;;;;;;;;2106141;28;20060;-64
2023/11/17 06:20:52;;;;;;;4.10;3.05;;;;;;;;;;2109940;28;20016;-65
2023/11/17 06:22:11;;;;;;;5.68;2.85;;;;;;;;;;2110481;28;20389;-65
2023/11/17 06:23:30;;;;;;;3.75;3.17;;;;;;;;;;2108337;28;20467;-64
2023/11/17 06:24:49;;;;;;;4.25;3.35;;;;;;;;;;2107794;28;20019;-65
2023/11/17 06:26:08;;;;;;;5.13;3.35;;;;;;;;;;2107251;28;20024;-64
2023/11/17 06:27:27;;;;;;;3.67;3.33;;;;;;;;;;2108574;28;20028;-64
2023/11/17 06:28:46;;;;;;;4.78;3.30;;;;;;;;;;2106485;28;20388;-64
2023/11/17 06:30:06;;;;;;;3.40;3.10;;;;;;;;;;2106667;28;20031;-64
2023/11/17 06:31:28;;;;;;;5.18;3.20;;;;;;;;;;2106098;28;20024;-64
2023/11/17 06:32:47;;;;;;;4.57;3.40;;;;;;;;;;2107240;28;20049;-65
2023/11/17 06:34:06;;;;;;;3.83;3.40;;;;;;;;;;2108378;28;20023;-65
2023/11/17 06:35:25;;;;;;;3.83;3.40;;;;;;;;;;2108312;28;20048;-65
2023/11/17 06:36:45;;;;;;;3.25;2.95;;;;;;;;;;2110145;28;20114;-64
2023/11/17 06:38:04;;;;;;;5.32;3.10;;;;;;;;;;2110753;28;20520;-65
2023/11/17 06:39:23;;;;;;;5.07;3.28;;;;;;;;;;2107257;28;20028;-65
2023/11/17 06:40:43;;;;;;;3.58;3.05;;;;;;;;;;2107961;28;20387;-65
2023/11/17 06:42:03;;;;;;;9.50;3.50;;;;;;;;;;2105972;28;20107;-65
2023/11/17 06:43:22;;;;;;;6.85;3.47;;;;;;;;;;2109362;28;20032;-64
2023/11/17 06:44:42;;;;;;;6.45;3.33;;;;;;;;;;2108887;28;20035;-64
2023/11/17 06:46:01;;;;;;;6.78;3.55;;;;;;;;;;2107244;28;20036;-64
2023/11/17 06:47:21;;;;;;;6.97;3.10;;;;;;;;;;2107532;28;20036;-65
2023/11/17 06:48:39;;;;;;;3.97;3.08;;;;;;;;;;2107293;28;20112;-65
2023/11/17 06:49:59;;;;;;;3.63;3.15;;;;;;;;;;2109607;28;20099;-65
2023/11/17 06:51:19;;;;;;;3.47;3.15;;;;;;;;;;2105356;28;20468;-65
2023/11/17 06:52:39;;;;;;;5.13;3.40;;;;;;;;;;2103254;28;21676;-65
2023/11/17 06:53:58;;;;;;;4.70;3.47;;;;;;;;;;2106853;28;20040;-65
2023/11/17 06:55:17;;;;;;;3.67;3.13;;;;;;;;;;2109038;28;20027;-64
2023/11/17 06:56:40;;;;;;;3.47;3.15;;;;;;;;;;2104800;28;20028;-65
2023/11/17 06:57:59;;;;;;;4.20;3.15;;;;;;;;;;2107620;28;20024;-65
2023/11/17 06:59:22;;;;;;;5.13;3.20;;;;;;;;;;2105920;28;20033;-65
2023/11/17 07:00:42;;;;;;;3.25;2.80;;;;;;;;;;2104359;28;20577;-65
2023/11/17 07:02:03;;;;;;;8.88;3.35;;;;;;;;;;2104515;28;20142;-65
2023/11/17 07:03:22;;;;;;;3.90;3.22;;;;;;;;;;2108409;28;20036;-65
2023/11/17 07:04:42;;;;;;;4.25;3.20;;;;;;;;;;2107719;28;20756;-66
2023/11/17 07:06:00;;;;;;;4.28;3.20;;;;;;;;;;2109905;28;20513;-65
2023/11/17 07:07:20;;;;;;;6.18;3.42;;;;;;;;;;2110614;28;20063;-65
2023/11/17 07:08:39;;;;;;;7.90;3.72;;;;;;;;;;2108452;28;20467;-65
2023/11/17 07:09:58;;;;;;;4.80;3.67;;;;;;;;;;2108460;28;20040;-66
2023/11/17 07:11:17;;;;;;;4.43;3.20;;;;;;;;;;2106871;28;20135;-65
2023/11/17 07:12:38;;;;;;;3.17;2.88;;;;;;;;;;2107216;28;20032;-65
2023/11/17 07:14:01;;;;;;;5.05;3.40;;;;;;;;;;2109908;28;20030;-65
2023/11/17 07:15:22;;;;;;;4.10;3.13;;;;;;;;;;2109254;28;20032;-65
2023/11/17 07:16:41;;;;;;;3.78;3.33;;;;;;;;;;2108176;28;20384;-65
2023/11/17 07:18:00;;;;;;;3.75;3.40;;;;;;;;;;2106176;28;20115;-64
2023/11/17 07:19:20;;;;;;;3.78;2.90;;;;;;;;;;2107840;28;20107;-65
2023/11/17 07:20:39;;;;;;;5.28;3.35;;;;;;;;;;2109110;28;20040;-65
2023/11/17 07:21:58;;;;;;;4.53;3.10;;;;;;;;;;2108894;28;20027;-65
2023/11/17 07:23:18;;;;;;;4.03;3.60;;;;;;;;;;2106147;28;20111;-65
2023/11/17 07:24:37;;;;;;;8.98;3.92;;;;;;;;;;2105885;28;20040;-65
2023/11/17 07:25:56;;;;;;;6.00;3.08;;;;;;;;;;2107236;28;20071;-65
2023/11/17 07:27:15;;;;;;;5.95;3.63;;;;;;;;;;2107846;28;20059;-65
2023/11/17 07:28:35;;;;;;;6.57;3.72;;;;;;;;;;2107237;28;20055;-65
2023/11/17 07:29:54;;;;;;;7.25;3.55;;;;;;;;;;2106982;28;20015;-65
2023/11/17 07:31:15;;;;;;;6.63;3.90;;;;;;;;;;2107995;28;20032;-65
2023/11/17 07:32:34;;;;;;;5.55;3.58;;;;;;;;;;2110569;28;20027;-65
2023/11/17 07:33:53;;;;;;;4.03;3.40;;;;;;;;;;2108073;28;20106;-66
2023/11/17 07:35:12;;;;;;;7.07;4.00;;;;;;;;;;2107977;28;20024;-65
2023/11/17 07:36:32;;;;;;;3.92;3.58;;;;;;;;;;2107733;28;20496;-65
2023/11/17 07:37:52;;;;;;;5.20;3.70;;;;;;;;;;2111223;28;20063;-65
2023/11/17 07:39:14;;;;;;;5.85;3.90;;;;;;;;;;2107180;28;20069;-65
2023/11/17 07:40:33;;;;;;;5.88;3.35;;;;;;;;;;2107814;28;20024;-65
2023/11/17 07:41:53;;;;;;;3.97;3.40;;;;;;;;;;2105567;28;20028;-65
2023/11/17 07:43:12;;;;;;;5.43;3.65;;;;;;;;;;2105966;28;20445;-65
2023/11/17 07:44:31;;;;;;;5.32;3.55;;;;;;;;;;2104361;28;20035;-65
2023/11/17 07:45:49;;;;;;;4.43;3.38;;;;;;;;;;2106662;28;20028;-66
2023/11/17 07:47:10;;;;;;;6.03;3.90;;;;;;;;;;2106405;28;20481;-65
2023/11/17 07:48:31;;;;;;;5.10;3.47;;;;;;;;;;2107948;28;20419;-65
2023/11/17 07:49:54;;;;;;;4.65;3.70;;;;;;;;;;2107215;28;20023;-65
2023/11/17 07:51:13;;;;;;;6.03;3.72;;;;;;;;;;2105731;28;20024;-65
2023/11/17 07:52:32;;;;;;;6.28;3.80;;;;;;;;;;2105472;28;20032;-65
2023/11/17 07:53:51;;;;;;;6.35;3.50;;;;;;;;;;2108692;28;20484;-65
2023/11/17 07:55:13;;;;;;;7.85;3.22;;;;;;;;;;2108880;28;20467;-65
2023/11/17 07:56:32;;;;;;;8.68;3.60;;;;;;;;;;2108787;28;20035;-65
2023/11/17 07:57:53;;;;;;;8.60;3.88;;;;;;;;;;2108913;28;20063;-64
2023/11/17 07:59:12;;;;;;;4.72;4.22;;;;;;;;;;2107771;28;20028;-65
2023/11/17 08:00:31;;;;;;;4.45;3.78;;;;;;;;;;2108418;28;20032;-66